sensor_id;sensor_type;location;lat;lon;timestamp;P1;durP1;ratioP1;P2;durP2;ratioP2
33254;SDS011;19623;52.482;9.762;2023-03-01T00:01:48;8.32;;;4.82;;
33254;SDS011;19623;52.482;9.762;2023-03-01T00:04:13;9.95;;;4.75;;
33254;SDS011;19623;52.482;9.762;2023-03-01T00:06:39;10.68;;;5.18;;
33254;SDS011;19623;52.482;9.762;2023-03-01T00:09:07;8.82;;;4.68;;
33254;SDS011;19623;52.482;9.762;2023-03-01T00:11:32;11.57;;;5.30;;
33254;SDS011;19623;52.482;9.762;2023-03-01T00:13:59;9.95;;;4.95;;
33254;SDS011;19623;52.482;9.762;2023-03-01T00:16:30;11.77;;;4.78;;
33254;SDS011;19623;52.482;9.762;2023-03-01T00:19:00;7.95;;;4.68;;
33254;SDS011;19623;52.482;9.762;2023-03-01T00:21:27;8.98;;;5.03;;
33254;SDS011;19623;52.482;9.762;2023-03-01T00:23:54;9.75;;;4.70;;
33254;SDS011;19623;52.482;9.762;2023-03-01T00:26:20;7.60;;;4.75;;
33254;SDS011;19623;52.482;9.762;2023-03-01T00:28:47;9.98;;;5.15;;
33254;SDS011;19623;52.482;9.762;2023-03-01T00:31:14;11.52;;;5.55;;
33254;SDS011;19623;52.482;9.762;2023-03-01T00:33:41;11.27;;;5.35;;
33254;SDS011;19623;52.482;9.762;2023-03-01T00:36:07;10.93;;;5.80;;
33254;SDS011;19623;52.482;9.762;2023-03-01T00:38:35;11.30;;;5.72;;
33254;SDS011;19623;52.482;9.762;2023-03-01T00:41:02;10.77;;;5.28;;
33254;SDS011;19623;52.482;9.762;2023-03-01T00:43:39;11.23;;;5.68;;
33254;SDS011;19623;52.482;9.762;2023-03-01T00:46:06;8.63;;;5.35;;
33254;SDS011;19623;52.482;9.762;2023-03-01T00:48:34;10.20;;;5.72;;
33254;SDS011;19623;52.482;9.762;2023-03-01T00:51:04;11.30;;;5.45;;
33254;SDS011;19623;52.482;9.762;2023-03-01T00:53:31;11.52;;;5.15;;
33254;SDS011;19623;52.482;9.762;2023-03-01T00:55:57;8.52;;;5.30;;
33254;SDS011;19623;52.482;9.762;2023-03-01T00:58:23;11.23;;;5.43;;
33254;SDS011;19623;52.482;9.762;2023-03-01T01:00:49;10.63;;;5.00;;
33254;SDS011;19623;52.482;9.762;2023-03-01T01:03:15;8.00;;;4.75;;
33254;SDS011;19623;52.482;9.762;2023-03-01T01:05:40;10.82;;;4.93;;
33254;SDS011;19623;52.482;9.762;2023-03-01T01:08:06;14.98;;;5.40;;
33254;SDS011;19623;52.482;9.762;2023-03-01T01:10:33;12.77;;;6.40;;
33254;SDS011;19623;52.482;9.762;2023-03-01T01:12:59;9.90;;;5.40;;
33254;SDS011;19623;52.482;9.762;2023-03-01T01:15:25;13.52;;;6.32;;
33254;SDS011;19623;52.482;9.762;2023-03-01T01:17:51;12.00;;;5.90;;
33254;SDS011;19623;52.482;9.762;2023-03-01T01:20:16;8.88;;;5.35;;
33254;SDS011;19623;52.482;9.762;2023-03-01T01:22:42;8.25;;;4.97;;
33254;SDS011;19623;52.482;9.762;2023-03-01T01:25:08;12.00;;;5.07;;
33254;SDS011;19623;52.482;9.762;2023-03-01T01:27:34;8.43;;;4.50;;
33254;SDS011;19623;52.482;9.762;2023-03-01T01:30:00;10.48;;;5.68;;
33254;SDS011;19623;52.482;9.762;2023-03-01T01:32:25;11.32;;;5.88;;
33254;SDS011;19623;52.482;9.762;2023-03-01T01:34:51;14.43;;;6.95;;
33254;SDS011;19623;52.482;9.762;2023-03-01T01:37:17;10.65;;;5.72;;
33254;SDS011;19623;52.482;9.762;2023-03-01T01:39:42;13.57;;;6.10;;
33254;SDS011;19623;52.482;9.762;2023-03-01T01:42:15;14.63;;;6.40;;
33254;SDS011;19623;52.482;9.762;2023-03-01T01:44:42;11.65;;;5.50;;
33254;SDS011;19623;52.482;9.762;2023-03-01T01:47:20;11.80;;;6.30;;
33254;SDS011;19623;52.482;9.762;2023-03-01T01:49:48;10.27;;;5.32;;
33254;SDS011;19623;52.482;9.762;2023-03-01T01:52:24;14.05;;;6.80;;
33254;SDS011;19623;52.482;9.762;2023-03-01T01:55:03;12.60;;;6.45;;
33254;SDS011;19623;52.482;9.762;2023-03-01T01:57:34;14.50;;;6.40;;
33254;SDS011;19623;52.482;9.762;2023-03-01T02:00:09;13.43;;;6.40;;
33254;SDS011;19623;52.482;9.762;2023-03-01T02:02:37;11.50;;;6.18;;
33254;SDS011;19623;52.482;9.762;2023-03-01T02:05:15;13.75;;;6.95;;
33254;SDS011;19623;52.482;9.762;2023-03-01T02:07:49;11.93;;;6.25;;
33254;SDS011;19623;52.482;9.762;2023-03-01T02:10:15;13.13;;;6.60;;
33254;SDS011;19623;52.482;9.762;2023-03-01T02:12:41;17.13;;;7.30;;
33254;SDS011;19623;52.482;9.762;2023-03-01T02:15:07;17.20;;;6.88;;
33254;SDS011;19623;52.482;9.762;2023-03-01T02:17:33;11.70;;;6.45;;
33254;SDS011;19623;52.482;9.762;2023-03-01T02:22:48;15.05;;;6.38;;
33254;SDS011;19623;52.482;9.762;2023-03-01T02:28:08;15.15;;;5.63;;
33254;SDS011;19623;52.482;9.762;2023-03-01T02:30:40;11.30;;;5.28;;
33254;SDS011;19623;52.482;9.762;2023-03-01T02:33:27;13.07;;;5.40;;
33254;SDS011;19623;52.482;9.762;2023-03-01T02:35:53;10.98;;;5.53;;
33254;SDS011;19623;52.482;9.762;2023-03-01T02:38:21;9.75;;;5.03;;
33254;SDS011;19623;52.482;9.762;2023-03-01T02:40:48;9.85;;;5.00;;
33254;SDS011;19623;52.482;9.762;2023-03-01T02:43:16;10.60;;;5.40;;
33254;SDS011;19623;52.482;9.762;2023-03-01T02:45:48;10.90;;;5.43;;
33254;SDS011;19623;52.482;9.762;2023-03-01T02:48:15;13.07;;;5.75;;
33254;SDS011;19623;52.482;9.762;2023-03-01T02:56:08;14.95;;;6.18;;
33254;SDS011;19623;52.482;9.762;2023-03-01T02:58:38;11.13;;;5.80;;
33254;SDS011;19623;52.482;9.762;2023-03-01T03:01:10;8.90;;;5.22;;
33254;SDS011;19623;52.482;9.762;2023-03-01T03:03:40;10.75;;;5.88;;
33254;SDS011;19623;52.482;9.762;2023-03-01T03:06:06;8.32;;;5.03;;
33254;SDS011;19623;52.482;9.762;2023-03-01T03:08:32;8.70;;;5.60;;
33254;SDS011;19623;52.482;9.762;2023-03-01T03:10:57;11.38;;;6.35;;
33254;SDS011;19623;52.482;9.762;2023-03-01T03:13:23;11.25;;;5.82;;
33254;SDS011;19623;52.482;9.762;2023-03-01T03:15:54;9.90;;;5.53;;
33254;SDS011;19623;52.482;9.762;2023-03-01T03:18:21;12.05;;;6.40;;
33254;SDS011;19623;52.482;9.762;2023-03-01T03:20:47;12.88;;;5.93;;
33254;SDS011;19623;52.482;9.762;2023-03-01T03:23:17;12.45;;;6.32;;
33254;SDS011;19623;52.482;9.762;2023-03-01T03:25:44;11.20;;;5.93;;
33254;SDS011;19623;52.482;9.762;2023-03-01T03:28:12;10.65;;;5.60;;
33254;SDS011;19623;52.482;9.762;2023-03-01T03:30:39;8.40;;;5.30;;
33254;SDS011;19623;52.482;9.762;2023-03-01T03:33:06;13.13;;;5.60;;
33254;SDS011;19623;52.482;9.762;2023-03-01T03:35:33;9.15;;;5.22;;
33254;SDS011;19623;52.482;9.762;2023-03-01T03:38:05;10.15;;;5.65;;
33254;SDS011;19623;52.482;9.762;2023-03-01T03:40:40;10.70;;;5.30;;
33254;SDS011;19623;52.482;9.762;2023-03-01T03:43:09;12.55;;;5.70;;
33254;SDS011;19623;52.482;9.762;2023-03-01T03:45:46;13.07;;;5.90;;
33254;SDS011;19623;52.482;9.762;2023-03-01T03:48:13;8.77;;;5.22;;
33254;SDS011;19623;52.482;9.762;2023-03-01T03:50:40;8.95;;;4.95;;
33254;SDS011;19623;52.482;9.762;2023-03-01T03:53:08;11.90;;;5.78;;
33254;SDS011;19623;52.482;9.762;2023-03-01T03:55:35;11.60;;;5.53;;
33254;SDS011;19623;52.482;9.762;2023-03-01T03:58:04;11.55;;;5.80;;
33254;SDS011;19623;52.482;9.762;2023-03-01T04:00:37;12.10;;;6.25;;
33254;SDS011;19623;52.482;9.762;2023-03-01T04:03:07;10.13;;;5.57;;
33254;SDS011;19623;52.482;9.762;2023-03-01T04:05:33;10.85;;;5.53;;
33254;SDS011;19623;52.482;9.762;2023-03-01T04:08:00;15.38;;;6.22;;
33254;SDS011;19623;52.482;9.762;2023-03-01T04:10:27;11.02;;;5.60;;
33254;SDS011;19623;52.482;9.762;2023-03-01T04:12:54;10.43;;;5.63;;
33254;SDS011;19623;52.482;9.762;2023-03-01T04:15:21;10.63;;;5.40;;
33254;SDS011;19623;52.482;9.762;2023-03-01T04:17:49;11.05;;;5.53;;
33254;SDS011;19623;52.482;9.762;2023-03-01T04:20:18;10.45;;;4.93;;
33254;SDS011;19623;52.482;9.762;2023-03-01T04:22:52;10.90;;;5.30;;
33254;SDS011;19623;52.482;9.762;2023-03-01T04:25:22;11.52;;;5.47;;
33254;SDS011;19623;52.482;9.762;2023-03-01T04:27:48;11.93;;;5.78;;
33254;SDS011;19623;52.482;9.762;2023-03-01T04:30:14;14.57;;;5.63;;
33254;SDS011;19623;52.482;9.762;2023-03-01T04:32:39;9.02;;;5.22;;
33254;SDS011;19623;52.482;9.762;2023-03-01T04:35:05;8.68;;;5.00;;
33254;SDS011;19623;52.482;9.762;2023-03-01T04:37:31;8.10;;;5.03;;
33254;SDS011;19623;52.482;9.762;2023-03-01T04:39:57;13.43;;;5.25;;
33254;SDS011;19623;52.482;9.762;2023-03-01T04:42:23;8.23;;;4.65;;
33254;SDS011;19623;52.482;9.762;2023-03-01T04:44:49;8.98;;;4.82;;
33254;SDS011;19623;52.482;9.762;2023-03-01T04:47:16;10.38;;;4.90;;
33254;SDS011;19623;52.482;9.762;2023-03-01T04:49:42;8.68;;;4.57;;
33254;SDS011;19623;52.482;9.762;2023-03-01T04:52:08;11.00;;;4.85;;
33254;SDS011;19623;52.482;9.762;2023-03-01T04:54:34;15.23;;;5.18;;
33254;SDS011;19623;52.482;9.762;2023-03-01T04:57:01;7.55;;;4.63;;
33254;SDS011;19623;52.482;9.762;2023-03-01T04:59:28;7.25;;;4.05;;
33254;SDS011;19623;52.482;9.762;2023-03-01T05:01:54;12.23;;;4.75;;
33254;SDS011;19623;52.482;9.762;2023-03-01T05:04:21;7.60;;;4.50;;
33254;SDS011;19623;52.482;9.762;2023-03-01T05:06:47;9.70;;;4.28;;
33254;SDS011;19623;52.482;9.762;2023-03-01T05:09:13;9.57;;;5.18;;
33254;SDS011;19623;52.482;9.762;2023-03-01T05:11:39;7.70;;;4.90;;
33254;SDS011;19623;52.482;9.762;2023-03-01T05:14:05;8.15;;;4.55;;
33254;SDS011;19623;52.482;9.762;2023-03-01T05:16:32;9.18;;;4.45;;
33254;SDS011;19623;52.482;9.762;2023-03-01T05:18:58;10.48;;;4.70;;
33254;SDS011;19623;52.482;9.762;2023-03-01T05:21:24;10.38;;;4.35;;
33254;SDS011;19623;52.482;9.762;2023-03-01T05:23:50;9.75;;;5.60;;
33254;SDS011;19623;52.482;9.762;2023-03-01T05:26:17;9.85;;;5.18;;
33254;SDS011;19623;52.482;9.762;2023-03-01T05:28:44;10.00;;;4.93;;
33254;SDS011;19623;52.482;9.762;2023-03-01T05:31:10;9.00;;;4.93;;
33254;SDS011;19623;52.482;9.762;2023-03-01T05:33:36;9.32;;;4.93;;
33254;SDS011;19623;52.482;9.762;2023-03-01T05:36:03;9.18;;;4.88;;
33254;SDS011;19623;52.482;9.762;2023-03-01T05:38:29;7.40;;;4.50;;
33254;SDS011;19623;52.482;9.762;2023-03-01T05:40:55;9.82;;;4.95;;
33254;SDS011;19623;52.482;9.762;2023-03-01T05:43:21;10.23;;;5.00;;
33254;SDS011;19623;52.482;9.762;2023-03-01T05:45:46;9.68;;;4.78;;
33254;SDS011;19623;52.482;9.762;2023-03-01T05:48:12;8.73;;;4.60;;
33254;SDS011;19623;52.482;9.762;2023-03-01T05:50:41;13.18;;;5.20;;
33254;SDS011;19623;52.482;9.762;2023-03-01T05:55:36;10.05;;;4.88;;
33254;SDS011;19623;52.482;9.762;2023-03-01T05:58:03;10.32;;;4.70;;
33254;SDS011;19623;52.482;9.762;2023-03-01T06:00:31;7.57;;;4.47;;
33254;SDS011;19623;52.482;9.762;2023-03-01T06:02:58;7.68;;;4.53;;
33254;SDS011;19623;52.482;9.762;2023-03-01T06:05:25;10.10;;;4.63;;
33254;SDS011;19623;52.482;9.762;2023-03-01T06:07:50;11.32;;;4.55;;
33254;SDS011;19623;52.482;9.762;2023-03-01T06:10:18;10.00;;;4.28;;
33254;SDS011;19623;52.482;9.762;2023-03-01T06:12:45;9.57;;;4.18;;
33254;SDS011;19623;52.482;9.762;2023-03-01T06:15:12;8.70;;;4.15;;
33254;SDS011;19623;52.482;9.762;2023-03-01T06:17:40;7.60;;;4.38;;
33254;SDS011;19623;52.482;9.762;2023-03-01T06:20:11;9.43;;;4.18;;
33254;SDS011;19623;52.482;9.762;2023-03-01T06:22:37;7.10;;;4.20;;
33254;SDS011;19623;52.482;9.762;2023-03-01T06:25:06;10.50;;;4.10;;
33254;SDS011;19623;52.482;9.762;2023-03-01T06:27:33;9.82;;;4.00;;
33254;SDS011;19623;52.482;9.762;2023-03-01T06:29:59;11.02;;;4.60;;
33254;SDS011;19623;52.482;9.762;2023-03-01T06:32:26;10.18;;;5.07;;
33254;SDS011;19623;52.482;9.762;2023-03-01T06:35:03;9.68;;;4.25;;
33254;SDS011;19623;52.482;9.762;2023-03-01T06:37:30;10.35;;;4.57;;
33254;SDS011;19623;52.482;9.762;2023-03-01T06:39:55;10.05;;;4.65;;
33254;SDS011;19623;52.482;9.762;2023-03-01T06:42:21;10.00;;;5.05;;
33254;SDS011;19623;52.482;9.762;2023-03-01T06:44:47;11.30;;;4.38;;
33254;SDS011;19623;52.482;9.762;2023-03-01T06:47:13;10.70;;;4.35;;
33254;SDS011;19623;52.482;9.762;2023-03-01T06:49:39;7.93;;;4.30;;
33254;SDS011;19623;52.482;9.762;2023-03-01T06:52:04;10.40;;;4.47;;
33254;SDS011;19623;52.482;9.762;2023-03-01T06:54:30;8.32;;;4.13;;
33254;SDS011;19623;52.482;9.762;2023-03-01T06:56:56;11.45;;;4.70;;
33254;SDS011;19623;52.482;9.762;2023-03-01T06:59:21;10.10;;;4.45;;
33254;SDS011;19623;52.482;9.762;2023-03-01T07:01:47;8.63;;;4.65;;
33254;SDS011;19623;52.482;9.762;2023-03-01T07:04:13;8.73;;;4.45;;
33254;SDS011;19623;52.482;9.762;2023-03-01T07:06:39;10.00;;;4.22;;
33254;SDS011;19623;52.482;9.762;2023-03-01T07:09:05;10.73;;;4.60;;
33254;SDS011;19623;52.482;9.762;2023-03-01T07:11:30;12.35;;;4.68;;
33254;SDS011;19623;52.482;9.762;2023-03-01T07:13:56;9.63;;;4.70;;
33254;SDS011;19623;52.482;9.762;2023-03-01T07:16:23;13.23;;;4.82;;
33254;SDS011;19623;52.482;9.762;2023-03-01T07:18:48;8.93;;;5.15;;
33254;SDS011;19623;52.482;9.762;2023-03-01T07:21:14;15.23;;;6.25;;
33254;SDS011;19623;52.482;9.762;2023-03-01T07:23:41;10.25;;;5.47;;
33254;SDS011;19623;52.482;9.762;2023-03-01T07:26:07;10.40;;;5.55;;
33254;SDS011;19623;52.482;9.762;2023-03-01T07:28:32;10.45;;;4.75;;
33254;SDS011;19623;52.482;9.762;2023-03-01T07:31:01;10.50;;;5.20;;
33254;SDS011;19623;52.482;9.762;2023-03-01T07:33:27;12.52;;;5.75;;
33254;SDS011;19623;52.482;9.762;2023-03-01T07:36:00;12.05;;;5.78;;
33254;SDS011;19623;52.482;9.762;2023-03-01T07:38:26;11.80;;;6.47;;
33254;SDS011;19623;52.482;9.762;2023-03-01T07:40:53;11.50;;;5.97;;
33254;SDS011;19623;52.482;9.762;2023-03-01T07:43:22;11.13;;;6.18;;
33254;SDS011;19623;52.482;9.762;2023-03-01T07:45:48;13.02;;;6.35;;
33254;SDS011;19623;52.482;9.762;2023-03-01T07:48:13;12.15;;;6.25;;
33254;SDS011;19623;52.482;9.762;2023-03-01T07:50:39;10.80;;;6.30;;
33254;SDS011;19623;52.482;9.762;2023-03-01T07:53:05;13.80;;;5.70;;
33254;SDS011;19623;52.482;9.762;2023-03-01T07:55:30;10.48;;;5.75;;
33254;SDS011;19623;52.482;9.762;2023-03-01T07:57:56;10.80;;;6.28;;
33254;SDS011;19623;52.482;9.762;2023-03-01T08:00:22;12.82;;;6.50;;
33254;SDS011;19623;52.482;9.762;2023-03-01T08:02:47;12.60;;;6.25;;
33254;SDS011;19623;52.482;9.762;2023-03-01T08:05:13;14.48;;;6.88;;
33254;SDS011;19623;52.482;9.762;2023-03-01T08:07:39;13.95;;;6.45;;
33254;SDS011;19623;52.482;9.762;2023-03-01T08:10:05;13.00;;;6.57;;
33254;SDS011;19623;52.482;9.762;2023-03-01T08:12:31;14.45;;;7.13;;
33254;SDS011;19623;52.482;9.762;2023-03-01T08:14:56;12.40;;;6.63;;
33254;SDS011;19623;52.482;9.762;2023-03-01T08:17:22;11.23;;;6.35;;
33254;SDS011;19623;52.482;9.762;2023-03-01T08:19:48;13.43;;;6.25;;
33254;SDS011;19623;52.482;9.762;2023-03-01T08:22:14;11.73;;;6.38;;
33254;SDS011;19623;52.482;9.762;2023-03-01T08:24:40;14.20;;;6.32;;
33254;SDS011;19623;52.482;9.762;2023-03-01T08:27:05;12.63;;;7.07;;
33254;SDS011;19623;52.482;9.762;2023-03-01T08:29:31;13.15;;;6.50;;
33254;SDS011;19623;52.482;9.762;2023-03-01T08:31:58;13.25;;;6.88;;
33254;SDS011;19623;52.482;9.762;2023-03-01T08:34:24;12.98;;;6.65;;
33254;SDS011;19623;52.482;9.762;2023-03-01T08:36:50;11.88;;;6.20;;
33254;SDS011;19623;52.482;9.762;2023-03-01T08:39:17;13.40;;;6.57;;
33254;SDS011;19623;52.482;9.762;2023-03-01T08:41:44;10.93;;;6.00;;
33254;SDS011;19623;52.482;9.762;2023-03-01T08:44:11;10.10;;;5.75;;
33254;SDS011;19623;52.482;9.762;2023-03-01T08:46:39;14.05;;;6.60;;
33254;SDS011;19623;52.482;9.762;2023-03-01T08:49:16;11.43;;;5.65;;
33254;SDS011;19623;52.482;9.762;2023-03-01T08:51:44;10.32;;;5.28;;
33254;SDS011;19623;52.482;9.762;2023-03-01T08:54:11;10.50;;;5.15;;
33254;SDS011;19623;52.482;9.762;2023-03-01T08:56:39;12.00;;;5.50;;
33254;SDS011;19623;52.482;9.762;2023-03-01T08:59:05;12.07;;;5.50;;
33254;SDS011;19623;52.482;9.762;2023-03-01T09:01:31;11.90;;;4.90;;
33254;SDS011;19623;52.482;9.762;2023-03-01T09:03:57;9.13;;;5.00;;
33254;SDS011;19623;52.482;9.762;2023-03-01T09:06:23;12.68;;;4.90;;
33254;SDS011;19623;52.482;9.762;2023-03-01T09:08:49;8.32;;;4.78;;
33254;SDS011;19623;52.482;9.762;2023-03-01T09:11:16;8.07;;;4.50;;
33254;SDS011;19623;52.482;9.762;2023-03-01T09:13:44;9.30;;;4.85;;
33254;SDS011;19623;52.482;9.762;2023-03-01T09:16:11;7.80;;;4.65;;
33254;SDS011;19623;52.482;9.762;2023-03-01T09:18:38;11.65;;;5.28;;
33254;SDS011;19623;52.482;9.762;2023-03-01T09:21:08;15.63;;;4.90;;
33254;SDS011;19623;52.482;9.762;2023-03-01T09:23:40;21.08;;;5.38;;
33254;SDS011;19623;52.482;9.762;2023-03-01T09:26:08;9.77;;;4.90;;
33254;SDS011;19623;52.482;9.762;2023-03-01T09:28:35;18.38;;;5.38;;
33254;SDS011;19623;52.482;9.762;2023-03-01T09:31:02;10.43;;;4.85;;
33254;SDS011;19623;52.482;9.762;2023-03-01T09:33:29;11.18;;;4.40;;
33254;SDS011;19623;52.482;9.762;2023-03-01T09:36:00;8.60;;;4.45;;
33254;SDS011;19623;52.482;9.762;2023-03-01T09:38:29;13.80;;;5.88;;
33254;SDS011;19623;52.482;9.762;2023-03-01T09:40:55;10.60;;;4.70;;
33254;SDS011;19623;52.482;9.762;2023-03-01T09:46:04;10.27;;;4.40;;
33254;SDS011;19623;52.482;9.762;2023-03-01T09:48:37;7.10;;;4.05;;
33254;SDS011;19623;52.482;9.762;2023-03-01T09:51:15;7.85;;;4.10;;
33254;SDS011;19623;52.482;9.762;2023-03-01T09:53:44;8.43;;;4.68;;
33254;SDS011;19623;52.482;9.762;2023-03-01T09:56:16;8.52;;;4.00;;
33254;SDS011;19623;52.482;9.762;2023-03-01T09:59:11;8.80;;;4.32;;
33254;SDS011;19623;52.482;9.762;2023-03-01T10:01:59;9.60;;;4.00;;
33254;SDS011;19623;52.482;9.762;2023-03-01T10:04:45;11.30;;;4.57;;
33254;SDS011;19623;52.482;9.762;2023-03-01T10:07:27;11.57;;;5.25;;
33254;SDS011;19623;52.482;9.762;2023-03-01T10:10:04;10.10;;;4.53;;
33254;SDS011;19623;52.482;9.762;2023-03-01T10:12:35;7.75;;;3.88;;
33254;SDS011;19623;52.482;9.762;2023-03-01T10:15:07;8.27;;;3.53;;
33254;SDS011;19623;52.482;9.762;2023-03-01T10:17:41;9.85;;;4.13;;
33254;SDS011;19623;52.482;9.762;2023-03-01T10:20:19;5.68;;;2.83;;
33254;SDS011;19623;52.482;9.762;2023-03-01T10:22:57;7.10;;;3.10;;
33254;SDS011;19623;52.482;9.762;2023-03-01T10:31:02;9.73;;;3.70;;
33254;SDS011;19623;52.482;9.762;2023-03-01T10:33:31;8.75;;;3.60;;
33254;SDS011;19623;52.482;9.762;2023-03-01T10:38:26;6.75;;;3.00;;
33254;SDS011;19623;52.482;9.762;2023-03-01T10:41:11;8.13;;;3.33;;
33254;SDS011;19623;52.482;9.762;2023-03-01T10:43:43;6.78;;;3.03;;
33254;SDS011;19623;52.482;9.762;2023-03-01T10:46:37;6.63;;;3.05;;
33254;SDS011;19623;52.482;9.762;2023-03-01T10:49:06;5.82;;;3.38;;
33254;SDS011;19623;52.482;9.762;2023-03-01T10:51:42;6.70;;;3.53;;
33254;SDS011;19623;52.482;9.762;2023-03-01T10:54:17;6.22;;;2.90;;
33254;SDS011;19623;52.482;9.762;2023-03-01T10:56:47;8.57;;;3.35;;
33254;SDS011;19623;52.482;9.762;2023-03-01T11:04:34;6.30;;;3.08;;
33254;SDS011;19623;52.482;9.762;2023-03-01T11:07:01;6.43;;;2.55;;
33254;SDS011;19623;52.482;9.762;2023-03-01T11:09:30;8.45;;;3.13;;
33254;SDS011;19623;52.482;9.762;2023-03-01T11:12:03;5.53;;;3.38;;
33254;SDS011;19623;52.482;9.762;2023-03-01T11:14:35;5.68;;;2.90;;
33254;SDS011;19623;52.482;9.762;2023-03-01T11:17:04;8.52;;;3.65;;
33254;SDS011;19623;52.482;9.762;2023-03-01T11:19:37;6.22;;;3.42;;
33254;SDS011;19623;52.482;9.762;2023-03-01T11:22:03;7.00;;;3.05;;
33254;SDS011;19623;52.482;9.762;2023-03-01T11:24:52;9.48;;;3.00;;
33254;SDS011;19623;52.482;9.762;2023-03-01T11:27:24;4.65;;;2.70;;
33254;SDS011;19623;52.482;9.762;2023-03-01T11:29:57;5.53;;;2.90;;
33254;SDS011;19623;52.482;9.762;2023-03-01T11:32:30;7.57;;;2.60;;
33254;SDS011;19623;52.482;9.762;2023-03-01T11:35:44;5.30;;;2.42;;
33254;SDS011;19623;52.482;9.762;2023-03-01T11:48:21;6.22;;;2.40;;
33254;SDS011;19623;52.482;9.762;2023-03-01T11:51:16;3.10;;;2.17;;
33254;SDS011;19623;52.482;9.762;2023-03-01T11:56:34;5.40;;;2.72;;
33254;SDS011;19623;52.482;9.762;2023-03-01T12:01:32;5.60;;;2.20;;
33254;SDS011;19623;52.482;9.762;2023-03-01T12:07:02;4.35;;;2.38;;
33254;SDS011;19623;52.482;9.762;2023-03-01T12:12:29;5.60;;;2.70;;
33254;SDS011;19623;52.482;9.762;2023-03-01T12:24:33;5.28;;;2.53;;
33254;SDS011;19623;52.482;9.762;2023-03-01T12:27:41;4.43;;;2.35;;
33254;SDS011;19623;52.482;9.762;2023-03-01T12:29:55;5.78;;;2.90;;
33254;SDS011;19623;52.482;9.762;2023-03-01T12:35:20;5.30;;;2.70;;
33254;SDS011;19623;52.482;9.762;2023-03-01T12:51:14;5.25;;;3.10;;
33254;SDS011;19623;52.482;9.762;2023-03-01T12:53:53;5.00;;;2.58;;
33254;SDS011;19623;52.482;9.762;2023-03-01T12:56:22;6.45;;;2.75;;
33254;SDS011;19623;52.482;9.762;2023-03-01T13:09:43;5.43;;;2.58;;
33254;SDS011;19623;52.482;9.762;2023-03-01T13:17:49;5.50;;;2.42;;
33254;SDS011;19623;52.482;9.762;2023-03-01T13:20:18;6.50;;;2.67;;
33254;SDS011;19623;52.482;9.762;2023-03-01T13:22:46;5.00;;;2.88;;
33254;SDS011;19623;52.482;9.762;2023-03-01T13:27:38;7.40;;;3.15;;
33254;SDS011;19623;52.482;9.762;2023-03-01T13:30:11;4.32;;;2.78;;
33254;SDS011;19623;52.482;9.762;2023-03-01T13:35:53;4.88;;;2.50;;
33254;SDS011;19623;52.482;9.762;2023-03-01T13:41:09;7.22;;;3.50;;
33254;SDS011;19623;52.482;9.762;2023-03-01T13:43:36;6.03;;;2.72;;
33254;SDS011;19623;52.482;9.762;2023-03-01T13:46:09;4.72;;;2.65;;
33254;SDS011;19623;52.482;9.762;2023-03-01T13:48:38;4.75;;;2.63;;
33254;SDS011;19623;52.482;9.762;2023-03-01T13:51:05;4.97;;;2.80;;
33254;SDS011;19623;52.482;9.762;2023-03-01T13:53:34;6.65;;;2.60;;
33254;SDS011;19623;52.482;9.762;2023-03-01T13:56:20;3.63;;;2.10;;
33254;SDS011;19623;52.482;9.762;2023-03-01T13:58:59;5.97;;;2.50;;
33254;SDS011;19623;52.482;9.762;2023-03-01T14:01:30;3.55;;;2.15;;
33254;SDS011;19623;52.482;9.762;2023-03-01T14:03:58;4.63;;;2.22;;
33254;SDS011;19623;52.482;9.762;2023-03-01T14:06:25;5.90;;;2.17;;
33254;SDS011;19623;52.482;9.762;2023-03-01T14:19:59;3.35;;;2.05;;
33254;SDS011;19623;52.482;9.762;2023-03-01T14:22:34;3.92;;;1.85;;
33254;SDS011;19623;52.482;9.762;2023-03-01T14:25:01;3.45;;;2.30;;
33254;SDS011;19623;52.482;9.762;2023-03-01T14:27:33;7.13;;;2.28;;
33254;SDS011;19623;52.482;9.762;2023-03-01T14:30:10;3.25;;;1.90;;
33254;SDS011;19623;52.482;9.762;2023-03-01T14:32:39;6.05;;;1.67;;
33254;SDS011;19623;52.482;9.762;2023-03-01T14:35:19;2.90;;;1.77;;
33254;SDS011;19623;52.482;9.762;2023-03-01T14:37:56;4.68;;;1.67;;
33254;SDS011;19623;52.482;9.762;2023-03-01T14:40:29;5.35;;;2.00;;
33254;SDS011;19623;52.482;9.762;2023-03-01T14:43:00;4.45;;;2.25;;
33254;SDS011;19623;52.482;9.762;2023-03-01T14:45:36;3.28;;;1.90;;
33254;SDS011;19623;52.482;9.762;2023-03-01T14:48:02;4.13;;;1.70;;
33254;SDS011;19623;52.482;9.762;2023-03-01T14:50:32;2.88;;;1.88;;
33254;SDS011;19623;52.482;9.762;2023-03-01T14:52:59;3.60;;;1.90;;
33254;SDS011;19623;52.482;9.762;2023-03-01T14:57:59;3.55;;;1.88;;
33254;SDS011;19623;52.482;9.762;2023-03-01T15:00:29;3.00;;;1.70;;
33254;SDS011;19623;52.482;9.762;2023-03-01T15:02:58;3.15;;;1.67;;
33254;SDS011;19623;52.482;9.762;2023-03-01T15:05:31;3.97;;;1.70;;
33254;SDS011;19623;52.482;9.762;2023-03-01T15:10:33;2.85;;;1.67;;
33254;SDS011;19623;52.482;9.762;2023-03-01T15:13:10;3.05;;;1.88;;
33254;SDS011;19623;52.482;9.762;2023-03-01T15:15:46;2.67;;;1.40;;
33254;SDS011;19623;52.482;9.762;2023-03-01T15:18:14;4.20;;;1.98;;
33254;SDS011;19623;52.482;9.762;2023-03-01T15:20:50;7.00;;;1.80;;
33254;SDS011;19623;52.482;9.762;2023-03-01T15:25:55;3.70;;;1.60;;
33254;SDS011;19623;52.482;9.762;2023-03-01T15:28:23;2.75;;;1.67;;
33254;SDS011;19623;52.482;9.762;2023-03-01T15:30:55;2.92;;;1.42;;
33254;SDS011;19623;52.482;9.762;2023-03-01T15:33:38;1.85;;;1.40;;
33254;SDS011;19623;52.482;9.762;2023-03-01T15:36:36;2.20;;;1.38;;
33254;SDS011;19623;52.482;9.762;2023-03-01T15:45:37;5.30;;;1.67;;
33254;SDS011;19623;52.482;9.762;2023-03-01T15:47:40;3.05;;;1.48;;
33254;SDS011;19623;52.482;9.762;2023-03-01T15:52:52;4.70;;;1.95;;
33254;SDS011;19623;52.482;9.762;2023-03-01T15:55:29;7.65;;;1.33;;
33254;SDS011;19623;52.482;9.762;2023-03-01T15:58:12;6.38;;;1.60;;
33254;SDS011;19623;52.482;9.762;2023-03-01T16:00:40;5.15;;;1.33;;
33254;SDS011;19623;52.482;9.762;2023-03-01T16:03:07;3.30;;;1.60;;
33254;SDS011;19623;52.482;9.762;2023-03-01T16:05:37;6.53;;;1.70;;
33254;SDS011;19623;52.482;9.762;2023-03-01T16:08:03;3.45;;;1.65;;
33254;SDS011;19623;52.482;9.762;2023-03-01T16:10:32;3.55;;;1.30;;
33254;SDS011;19623;52.482;9.762;2023-03-01T16:12:58;3.00;;;1.33;;
33254;SDS011;19623;52.482;9.762;2023-03-01T16:15:26;2.53;;;1.58;;
33254;SDS011;19623;52.482;9.762;2023-03-01T16:17:56;4.78;;;1.75;;
33254;SDS011;19623;52.482;9.762;2023-03-01T16:20:25;2.97;;;1.50;;
33254;SDS011;19623;52.482;9.762;2023-03-01T16:22:51;3.10;;;1.58;;
33254;SDS011;19623;52.482;9.762;2023-03-01T16:25:18;4.75;;;1.77;;
33254;SDS011;19623;52.482;9.762;2023-03-01T16:27:45;2.17;;;1.30;;
33254;SDS011;19623;52.482;9.762;2023-03-01T16:30:13;3.80;;;1.27;;
33254;SDS011;19623;52.482;9.762;2023-03-01T16:32:42;3.53;;;1.48;;
33254;SDS011;19623;52.482;9.762;2023-03-01T16:35:10;2.92;;;1.40;;
33254;SDS011;19623;52.482;9.762;2023-03-01T16:37:38;2.47;;;1.48;;
33254;SDS011;19623;52.482;9.762;2023-03-01T16:40:05;2.30;;;1.60;;
33254;SDS011;19623;52.482;9.762;2023-03-01T16:42:40;40.80;;;19.55;;
33254;SDS011;19623;52.482;9.762;2023-03-01T16:45:07;6.55;;;3.45;;
33254;SDS011;19623;52.482;9.762;2023-03-01T16:47:33;4.13;;;1.67;;
33254;SDS011;19623;52.482;9.762;2023-03-01T16:49:59;8.05;;;1.95;;
33254;SDS011;19623;52.482;9.762;2023-03-01T16:52:25;4.63;;;1.70;;
33254;SDS011;19623;52.482;9.762;2023-03-01T16:54:52;7.25;;;1.38;;
33254;SDS011;19623;52.482;9.762;2023-03-01T16:57:25;3.78;;;1.77;;
33254;SDS011;19623;52.482;9.762;2023-03-01T16:59:51;6.15;;;2.38;;
33254;SDS011;19623;52.482;9.762;2023-03-01T17:02:20;6.50;;;3.53;;